Terminal Aerodrome Forecast
Issued by NWS Jackson, MS

Home | Current Version | Previous Version | Text Only | Print | Product List | Glossary On
Versions: 1 2 3 4 5 6 7 8 9 10 11 12 13 14
000
FTUS44 KMEG 241500 AAA
TAFTUP
TAF AMD
KTUP 241523Z 2415/2512 04006KT P6SM BKN010 BKN040
      TEMPO 2415/2416 BKN007
     FM241730 02008KT P6SM SCT015 BKN040
     FM250100 02004KT P6SM FEW050
     FM250700 02002KT 5SM BR SKC=

USA.gov is the U.S. government's official web portal to all federal, state and local government web resources and services.